Victoriya — V3YB4 — position and weather

sailwx.info

Track history (hours):
 
Tides and Currents Weather Stations Pressure Air Temp Water Temp Dewpoint Dewpoint Depression Visibility Wind Speed Wind Dir Waves Ship Positions

Victoriya

Last reported at 2018-Jan-21 04:47 UTC. Time now 2018-Jan-21 16:49 UTC.
Position N 57°25' E 010°43'.

Length 186 m; draft 6.9 m.

Type: Ship. MMSI: 312503000.

Date/timePositionNaut miles runAvg speedWind from/ knotsBaromVisibWave heightAir tempDewpointWater temp
2018-Jan-21 04:47N 57°25' E 010°43'310.6
2018-Jan-21 04:30N 57°28' E 010°43'5 9.4
2018-Jan-21 04:00N 57°32' E 010°44'5 9.8
2018-Jan-21 03:30N 57°37' E 010°45'510.8
2018-Jan-21 03:00N 57°43' E 010°45'510.2
2018-Jan-21 02:30N 57°48' E 010°44'612.1
2018-Jan-21 02:00N 57°48' E 010°33'612.4
2018-Jan-21 01:30N 57°48' E 010°21'612.2
2018-Jan-21 01:00N 57°48' E 010°10'611.8
2018-Jan-21 00:30N 57°48' E 009°59'611.7
2018-Jan-20 23:58N 57°45' E 009°48'612.2
2018-Jan-20 23:29N 57°43' E 009°38'611.4
2018-Jan-20 22:59N 57°41' E 009°28'611.6
2018-Jan-20 22:29N 57°38' E 009°18'611.6
2018-Jan-20 21:58N 57°35' E 009°09'611.5
2018-Jan-20 21:30N 57°32' E 009°00'611.7
2018-Jan-20 21:00N 57°29' E 008°51'611.5
2018-Jan-20 20:29N 57°25' E 008°42'511.5
2018-Jan-20 20:00N 57°22' E 008°34'26011.6
2018-Jan-19 21:38N 53°35' E 004°49'111.2
2018-Jan-19 21:30N 53°34' E 004°48'510.9
2018-Jan-19 21:00N 53°29' E 004°45'4 8.1
2018-Jan-19 20:30N 53°25' E 004°42'611.7
2018-Jan-19 19:59N 53°19' E 004°38'712.7
2018-Jan-19 19:27N 53°14' E 004°33'613.3
2018-Jan-19 19:00N 53°08' E 004°28'612.3
2018-Jan-19 18:30N 53°03' E 004°23'612.4
2018-Jan-19 18:00N 52°58' E 004°18'612.7
2018-Jan-19 17:30N 52°52' E 004°14'2113.0
2018-Jan-19 15:51N 52°35' E 003°51'613.2
2018-Jan-19 15:23N 52°31' E 003°44'613.2
2018-Jan-19 14:56N 52°27' E 003°37'22 8.6
2018-Jan-19 12:21N 52°13' E 003°09'3 9.5
2018-Jan-19 12:00N 52°09' E 003°10'5 9.8
2018-Jan-19 11:28N 52°05' E 003°06'510.0
2018-Jan-19 10:59N 52°03' E 003°13'511.4
2018-Jan-19 10:30N 52°03' E 003°22'611.4
2018-Jan-19 10:00N 52°03' E 003°31'611.4
2018-Jan-19 09:30N 52°03' E 003°40'611.2
2018-Jan-19 09:00N 52°03' E 003°50'4 7.3
2018-Jan-19 08:31N 52°02' E 003°55'510.4
2018-Jan-19 08:00N 51°60' E 004°03'4 9.0
2018-Jan-19 07:30N 51°57' E 004°09'2 3.6
2018-Jan-19 07:00N 51°56' E 004°11'0 0.0
2018-Jan-19 06:29N 51°56' E 004°11'0 0.0
2018-Jan-19 05:59N 51°56' E 004°11'0 0.0
2018-Jan-19 05:29N 51°56' E 004°11'0 0.0
2018-Jan-19 04:59N 51°56' E 004°11'0 0.0
2018-Jan-19 04:29N 51°56' E 004°11'0 0.0
2018-Jan-19 03:58N 51°56' E 004°11'0 0.0
2018-Jan-19 03:25N 51°56' E 004°11'0 0.0
2018-Jan-19 02:52N 51°56' E 004°11'0 0.0
2018-Jan-19 02:25N 51°56' E 004°11'0 0.0
2018-Jan-19 02:00N 51°56' E 004°11'0 0.0
2018-Jan-19 01:30N 51°56' E 004°11'0 0.0
2018-Jan-19 01:00N 51°56' E 004°11'0 0.0
2018-Jan-19 00:30N 51°56' E 004°11'0 0.0
2018-Jan-19 00:00N 51°56' E 004°11'0 0.0
2018-Jan-18 23:29N 51°56' E 004°11'0 0.0
2018-Jan-18 22:59N 51°56' E 004°11'0 0.0
2018-Jan-18 22:29N 51°56' E 004°11'0 0.0
2018-Jan-18 21:56N 51°56' E 004°11'0 0.0
2018-Jan-18 21:25N 51°56' E 004°11'0 0.0
2018-Jan-18 20:58N 51°56' E 004°11'0 0.0
2018-Jan-18 20:25N 51°56' E 004°11'0 0.0
2018-Jan-18 19:55N 51°56' E 004°11'0 0.0
2018-Jan-18 19:22N 51°56' E 004°11'0 0.0
2018-Jan-18 19:00N 51°56' E 004°11'0 0.0
2018-Jan-18 18:30N 51°56' E 004°11'0 0.0
2018-Jan-18 18:00N 51°56' E 004°11'0 0.0
2018-Jan-18 17:30N 51°56' E 004°11'0 0.0
2018-Jan-18 17:00N 51°56' E 004°11'0 0.0
2018-Jan-18 16:29N 51°56' E 004°11'0 0.0
2018-Jan-18 15:59N 51°56' E 004°11'0 0.0
2018-Jan-18 15:29N 51°56' E 004°11'0 0.0
2018-Jan-18 14:59N 51°56' E 004°11'0 0.0
2018-Jan-18 14:25N 51°56' E 004°11'0 0.0
2018-Jan-18 13:58N 51°56' E 004°11'0 0.0
2018-Jan-18 13:28N 51°56' E 004°11'0 0.0
2018-Jan-18 12:58N 51°56' E 004°11'0 0.0
2018-Jan-18 12:28N 51°56' E 004°11'0 0.0
2018-Jan-18 12:00N 51°56' E 004°11'0 0.0
2018-Jan-18 11:30N 51°56' E 004°11'0 0.0
2018-Jan-18 11:00N 51°56' E 004°11'0 0.0
2018-Jan-18 10:30N 51°56' E 004°11'0 0.0
2018-Jan-18 09:59N 51°56' E 004°11'0 0.0
2018-Jan-18 09:29N 51°56' E 004°11'0 0.0
2018-Jan-18 09:00N 51°56' E 004°11'0 0.0
2018-Jan-18 08:30N 51°56' E 004°11'0 0.0
2018-Jan-18 08:00N 51°56' E 004°11'0 0.0
2018-Jan-18 07:30N 51°56' E 004°11'0 0.0
2018-Jan-18 07:00N 51°56' E 004°11'0 0.0
2018-Jan-18 06:29N 51°56' E 004°11'0 0.0
2018-Jan-18 05:59N 51°56' E 004°11'0 0.0
2018-Jan-18 05:29N 51°56' E 004°11'0 0.0
2018-Jan-18 04:59N 51°56' E 004°11'0 0.0
2018-Jan-18 04:25N 51°56' E 004°11'0 0.0
2018-Jan-18 03:58N 51°56' E 004°11'0 0.0
2018-Jan-18 03:28N 51°56' E 004°11'0 0.0
2018-Jan-18 02:58N 51°56' E 004°11'0 0.0
2018-Jan-18 02:28N 51°56' E 004°11'0 0.0
2018-Jan-18 02:00N 51°56' E 004°11'0 0.0
2018-Jan-18 01:30N 51°56' E 004°11'0 0.0
2018-Jan-18 01:00N 51°56' E 004°11'0 0.0
2018-Jan-18 00:00N 51°56' E 004°11'0 0.1
2018-Jan-17 23:56N 51°56' E 004°11'  
2018-Jan-12 12:39N 51°54' E 003°29'0 0.0
2018-Jan-12 12:27N 51°54' E 003°29'0 0.0
2018-Jan-12 11:59N 51°54' E 003°29'0 0.0
2018-Jan-12 11:29N 51°54' E 003°29'0 0.0
2018-Jan-12 10:59N 51°54' E 003°29'0 0.0
2018-Jan-12 10:29N 51°54' E 003°29'0 0.0
2018-Jan-12 09:55N 51°54' E 003°29'  
Track history (hours):
 
Tides and Currents Weather Stations Pressure Air Temp Water Temp Dewpoint Dewpoint Depression Visibility Wind Speed Wind Dir Waves Ship Positions

Victoriya

Last reported at 2018-Jan-21 04:47 UTC. Time now 2018-Jan-21 16:49 UTC.
Position N 57°25' E 010°43'.

Length 186 m; draft 6.9 m.

Type: Ship. MMSI: 312503000.

Date/timePositionNaut miles runAvg speedWind from/ knotsBaromVisibWave heightAir tempDewpointWater temp
2018-Jan-21 04:47N 57°25' E 010°43'310.6
2018-Jan-21 04:30N 57°28' E 010°43'5 9.4
2018-Jan-21 04:00N 57°32' E 010°44'5 9.8
2018-Jan-21 03:30N 57°37' E 010°45'510.8
2018-Jan-21 03:00N 57°43' E 010°45'510.2
2018-Jan-21 02:30N 57°48' E 010°44'612.1
2018-Jan-21 02:00N 57°48' E 010°33'612.4
2018-Jan-21 01:30N 57°48' E 010°21'612.2
2018-Jan-21 01:00N 57°48' E 010°10'611.8
2018-Jan-21 00:30N 57°48' E 009°59'611.7
2018-Jan-20 23:58N 57°45' E 009°48'612.2
2018-Jan-20 23:29N 57°43' E 009°38'611.4
2018-Jan-20 22:59N 57°41' E 009°28'611.6
2018-Jan-20 22:29N 57°38' E 009°18'611.6
2018-Jan-20 21:58N 57°35' E 009°09'611.5
2018-Jan-20 21:30N 57°32' E 009°00'611.7
2018-Jan-20 21:00N 57°29' E 008°51'611.5
2018-Jan-20 20:29N 57°25' E 008°42'511.5
2018-Jan-20 20:00N 57°22' E 008°34'26011.6
2018-Jan-19 21:38N 53°35' E 004°49'111.2
2018-Jan-19 21:30N 53°34' E 004°48'510.9
2018-Jan-19 21:00N 53°29' E 004°45'4 8.1
2018-Jan-19 20:30N 53°25' E 004°42'611.7
2018-Jan-19 19:59N 53°19' E 004°38'712.7
2018-Jan-19 19:27N 53°14' E 004°33'613.3
2018-Jan-19 19:00N 53°08' E 004°28'612.3
2018-Jan-19 18:30N 53°03' E 004°23'612.4
2018-Jan-19 18:00N 52°58' E 004°18'612.7
2018-Jan-19 17:30N 52°52' E 004°14'2113.0
2018-Jan-19 15:51N 52°35' E 003°51'613.2
2018-Jan-19 15:23N 52°31' E 003°44'613.2
2018-Jan-19 14:56N 52°27' E 003°37'22 8.6
2018-Jan-19 12:21N 52°13' E 003°09'3 9.5
2018-Jan-19 12:00N 52°09' E 003°10'5 9.8
2018-Jan-19 11:28N 52°05' E 003°06'510.0
2018-Jan-19 10:59N 52°03' E 003°13'511.4
2018-Jan-19 10:30N 52°03' E 003°22'611.4
2018-Jan-19 10:00N 52°03' E 003°31'611.4
2018-Jan-19 09:30N 52°03' E 003°40'611.2
2018-Jan-19 09:00N 52°03' E 003°50'4 7.3
2018-Jan-19 08:31N 52°02' E 003°55'510.4
2018-Jan-19 08:00N 51°60' E 004°03'4 9.0
2018-Jan-19 07:30N 51°57' E 004°09'2 3.6
2018-Jan-19 07:00N 51°56' E 004°11'0 0.0
2018-Jan-19 06:29N 51°56' E 004°11'0 0.0
2018-Jan-19 05:59N 51°56' E 004°11'0 0.0
2018-Jan-19 05:29N 51°56' E 004°11'0 0.0
2018-Jan-19 04:59N 51°56' E 004°11'0 0.0
2018-Jan-19 04:29N 51°56' E 004°11'0 0.0
2018-Jan-19 03:58N 51°56' E 004°11'0 0.0
2018-Jan-19 03:25N 51°56' E 004°11'0 0.0
2018-Jan-19 02:52N 51°56' E 004°11'0 0.0
2018-Jan-19 02:25N 51°56' E 004°11'0 0.0
2018-Jan-19 02:00N 51°56' E 004°11'0 0.0
2018-Jan-19 01:30N 51°56' E 004°11'0 0.0
2018-Jan-19 01:00N 51°56' E 004°11'0 0.0
2018-Jan-19 00:30N 51°56' E 004°11'0 0.0
2018-Jan-19 00:00N 51°56' E 004°11'0 0.0
2018-Jan-18 23:29N 51°56' E 004°11'0 0.0
2018-Jan-18 22:59N 51°56' E 004°11'0 0.0
2018-Jan-18 22:29N 51°56' E 004°11'0 0.0
2018-Jan-18 21:56N 51°56' E 004°11'0 0.0
2018-Jan-18 21:25N 51°56' E 004°11'0 0.0
2018-Jan-18 20:58N 51°56' E 004°11'0 0.0
2018-Jan-18 20:25N 51°56' E 004°11'0 0.0
2018-Jan-18 19:55N 51°56' E 004°11'0 0.0
2018-Jan-18 19:22N 51°56' E 004°11'0 0.0
2018-Jan-18 19:00N 51°56' E 004°11'0 0.0
2018-Jan-18 18:30N 51°56' E 004°11'0 0.0
2018-Jan-18 18:00N 51°56' E 004°11'0 0.0
2018-Jan-18 17:30N 51°56' E 004°11'0 0.0
2018-Jan-18 17:00N 51°56' E 004°11'0 0.0
2018-Jan-18 16:29N 51°56' E 004°11'0 0.0
2018-Jan-18 15:59N 51°56' E 004°11'0 0.0
2018-Jan-18 15:29N 51°56' E 004°11'0 0.0
2018-Jan-18 14:59N 51°56' E 004°11'0 0.0
2018-Jan-18 14:25N 51°56' E 004°11'0 0.0
2018-Jan-18 13:58N 51°56' E 004°11'0 0.0
2018-Jan-18 13:28N 51°56' E 004°11'0 0.0
2018-Jan-18 12:58N 51°56' E 004°11'0 0.0
2018-Jan-18 12:28N 51°56' E 004°11'0 0.0
2018-Jan-18 12:00N 51°56' E 004°11'0 0.0
2018-Jan-18 11:30N 51°56' E 004°11'0 0.0
2018-Jan-18 11:00N 51°56' E 004°11'0 0.0
2018-Jan-18 10:30N 51°56' E 004°11'0 0.0
2018-Jan-18 09:59N 51°56' E 004°11'0 0.0
2018-Jan-18 09:29N 51°56' E 004°11'0 0.0
2018-Jan-18 09:00N 51°56' E 004°11'0 0.0
2018-Jan-18 08:30N 51°56' E 004°11'0 0.0
2018-Jan-18 08:00N 51°56' E 004°11'0 0.0
2018-Jan-18 07:30N 51°56' E 004°11'0 0.0
2018-Jan-18 07:00N 51°56' E 004°11'0 0.0
2018-Jan-18 06:29N 51°56' E 004°11'0 0.0
2018-Jan-18 05:59N 51°56' E 004°11'0 0.0
2018-Jan-18 05:29N 51°56' E 004°11'0 0.0
2018-Jan-18 04:59N 51°56' E 004°11'0 0.0
2018-Jan-18 04:25N 51°56' E 004°11'0 0.0
2018-Jan-18 03:58N 51°56' E 004°11'0 0.0
2018-Jan-18 03:28N 51°56' E 004°11'0 0.0
2018-Jan-18 02:58N 51°56' E 004°11'0 0.0
2018-Jan-18 02:28N 51°56' E 004°11'0 0.0
2018-Jan-18 02:00N 51°56' E 004°11'0 0.0
2018-Jan-18 01:30N 51°56' E 004°11'0 0.0
2018-Jan-18 01:00N 51°56' E 004°11'0 0.0
2018-Jan-18 00:00N 51°56' E 004°11'0 0.1
2018-Jan-17 23:56N 51°56' E 004°11'  
2018-Jan-12 12:39N 51°54' E 003°29'0 0.0
2018-Jan-12 12:27N 51°54' E 003°29'0 0.0
2018-Jan-12 11:59N 51°54' E 003°29'0 0.0
2018-Jan-12 11:29N 51°54' E 003°29'0 0.0
2018-Jan-12 10:59N 51°54' E 003°29'0 0.0
2018-Jan-12 10:29N 51°54' E 003°29'0 0.0
2018-Jan-12 09:55N 51°54' E 003°29'  

Dump ship's entire track history